Time;durP1;ratioP1;P1;durP2;ratioP2;P2;SDS_P1;SDS_P2;PMS_P1;PMS_P2;Temp;Humidity;BMP_temperature;BMP_pressure;BME280_temperature;BME280_humidity;BME280_pressure;Samples;Min_cycle;Max_cycle;Signal;HPM_P1;HPM_P2
2020/12/03 00:00:57;;;;;;;14.15;2.38;;;22.00;15.80;;;;;;5098769;28;20114;-65
2020/12/03 00:03:36;;;;;;;17.70;3.55;;;21.90;16.10;;;;;;5101566;28;20123;-66
2020/12/03 00:06:14;;;;;;;20.00;4.93;;;21.80;16.30;;;;;;5082875;28;20478;-66
2020/12/03 00:08:45;;;;;;;15.77;4.75;;;21.80;16.50;;;;;;5103002;28;20064;-66
2020/12/03 00:11:12;;;;;;;18.83;9.07;;;21.70;16.70;;;;;;5086702;28;20072;-66
2020/12/03 00:13:39;;;;;;;16.90;7.30;;;21.60;17.00;;;;;;5100381;28;20080;-65
2020/12/03 00:16:06;;;;;;;22.45;6.78;;;21.40;17.20;;;;;;5103725;28;20573;-65
2020/12/03 00:18:35;;;;;;;24.55;5.88;;;21.30;17.30;;;;;;5101933;28;20129;-65
2020/12/03 00:21:05;;;;;;;22.60;3.80;;;21.10;17.70;;;;;;5107213;28;20180;-65
2020/12/03 00:23:32;;;;;;;17.23;4.43;;;21.00;18.00;;;;;;5101277;28;20154;-66
2020/12/03 00:25:59;;;;;;;17.15;3.17;;;20.90;18.30;;;;;;5100103;28;20072;-66
2020/12/03 00:28:37;;;;;;;14.60;2.67;;;20.80;18.40;;;;;;5081241;28;20084;-65
2020/12/03 00:31:05;;;;;;;16.42;2.50;;;20.60;18.70;;;;;;5103422;28;20121;-65
2020/12/03 00:33:32;;;;;;;17.60;2.55;;;20.50;19.20;;;;;;5104298;28;20091;-65
2020/12/03 00:35:59;;;;;;;18.83;2.25;;;20.30;19.30;;;;;;5109306;28;20076;-65
2020/12/03 00:38:26;;;;;;;14.60;2.28;;;20.20;19.30;;;;;;5108563;28;20073;-65
2020/12/03 00:40:54;;;;;;;12.63;2.00;;;20.10;19.40;;;;;;5106575;28;20076;-65
2020/12/03 00:43:21;;;;;;;15.63;3.03;;;20.00;19.60;;;;;;5105230;28;20121;-65
2020/12/03 00:45:48;;;;;;;22.20;2.15;;;19.90;19.80;;;;;;5102565;28;20569;-66
2020/12/03 00:48:17;;;;;;;13.88;2.55;;;19.80;20.00;;;;;;5090253;28;20485;-66
2020/12/03 00:50:44;;;;;;;16.25;4.40;;;19.60;20.00;;;;;;5102859;28;20073;-66
2020/12/03 00:53:11;;;;;;;14.98;3.63;;;19.50;19.90;;;;;;5103540;28;20095;-66
2020/12/03 00:55:37;;;;;;;;;;;19.40;19.80;;;;;;5103960;28;20145;-66
2020/12/03 00:58:05;;;;;;;9.63;2.55;;;19.30;19.90;;;;;;5108099;28;20457;-65
2020/12/03 01:00:31;;;;;;;12.40;2.28;;;19.20;19.70;;;;;;5103233;28;20190;-66
2020/12/03 01:02:57;;;;;;;;;;;19.10;19.50;;;;;;5105787;28;20092;-66
2020/12/03 01:05:24;;;;;;;12.80;2.80;;;19.00;19.40;;;;;;5101472;28;19957;-66
2020/12/03 01:07:50;;;;;;;14.13;3.13;;;18.90;19.40;;;;;;5106293;28;20100;-66
2020/12/03 01:10:21;;;;;;;;;;;18.80;19.30;;;;;;5091233;28;20068;-67
2020/12/03 01:12:48;;;;;;;14.05;3.17;;;18.80;19.30;;;;;;5102058;28;20452;-66
2020/12/03 01:15:15;;;;;;;14.82;2.65;;;18.70;19.50;;;;;;5105887;28;20389;-66
2020/12/03 01:17:43;;;;;;;22.38;2.88;;;18.60;19.50;;;;;;5106250;28;20077;-67
2020/12/03 01:20:13;;;;;;;7.22;2.40;;;18.50;19.50;;;;;;5110307;28;20540;-67
2020/12/03 01:22:39;;;;;;;16.95;2.72;;;18.50;20.00;;;;;;5102783;28;20111;-69
2020/12/03 01:25:06;;;;;;;;;;;18.40;19.30;;;;;;5105563;28;20525;-66
2020/12/03 01:27:33;;;;;;;15.52;2.85;;;18.30;19.50;;;;;;5107345;28;20355;-66
2020/12/03 01:29:59;;;;;;;;;;;18.30;19.70;;;;;;5105484;28;20075;-66
2020/12/03 01:32:25;;;;;;;19.77;6.80;;;18.20;20.00;;;;;;5084870;28;20093;-67
2020/12/03 01:34:52;;;;;;;;;;;18.10;19.90;;;;;;5089076;28;20206;-66
2020/12/03 01:37:18;;;;;;;27.60;6.28;;;18.10;19.90;;;;;;5105685;28;19960;-66
2020/12/03 01:39:44;;;;;;;;;;;18.00;20.10;;;;;;5106268;28;20110;-67
2020/12/03 01:42:15;;;;;;;19.05;6.03;;;18.00;20.40;;;;;;5102167;28;20063;-67
2020/12/03 01:44:49;;;;;;;16.83;5.25;;;17.90;20.40;;;;;;5087864;28;20072;-68
2020/12/03 01:47:35;;;;;;;12.45;4.70;;;17.80;20.90;;;;;;5085280;28;20064;-67
2020/12/03 01:50:03;;;;;;;24.65;5.40;;;17.70;20.20;;;;;;5084450;28;20076;-67
2020/12/03 01:52:30;;;;;;;20.92;5.85;;;17.60;20.20;;;;;;5106747;28;20068;-67
2020/12/03 01:54:57;;;;;;;26.67;6.78;;;17.60;20.80;;;;;;5105512;28;20072;-67
2020/12/03 01:57:41;;;;;;;;;;;17.60;20.80;;;;;;5107031;28;20072;-67
2020/12/03 02:00:15;;;;;;;25.02;8.40;;;17.50;20.90;;;;;;5102144;28;20471;-67
2020/12/03 02:02:45;;;;;;;21.20;8.13;;;17.50;21.00;;;;;;5106645;28;20095;-65
2020/12/03 02:05:13;;;;;;;20.77;6.90;;;17.40;21.00;;;;;;5108445;28;20079;-66
2020/12/03 02:07:40;;;;;;;20.25;5.97;;;17.40;21.00;;;;;;5089433;28;20437;-66
2020/12/03 02:10:08;;;;;;;20.55;6.43;;;17.30;21.50;;;;;;5104014;28;20114;-67
2020/12/03 02:12:35;;;;;;;28.67;7.00;;;17.30;21.00;;;;;;5084107;28;20072;-67
2020/12/03 02:15:05;;;;;;;24.38;6.70;;;17.30;21.10;;;;;;5107110;28;20081;-68
2020/12/03 02:17:31;;;;;;;20.63;5.90;;;17.30;21.30;;;;;;5103271;28;20069;-67
2020/12/03 02:19:58;;;;;;;;;;;17.20;21.30;;;;;;5104737;28;20547;-66
2020/12/03 02:22:25;;;;;;;21.63;5.57;;;17.10;21.20;;;;;;5108936;28;20040;-67
2020/12/03 02:24:52;;;;;;;18.83;5.35;;;17.10;21.20;;;;;;5102636;28;20451;-66
2020/12/03 02:27:22;;;;;;;25.95;4.88;;;17.10;21.60;;;;;;5086119;28;20083;-66
2020/12/03 02:29:50;;;;;;;15.75;4.82;;;17.10;21.50;;;;;;5080951;28;20076;-67
2020/12/03 02:32:17;;;;;;;12.38;3.85;;;17.00;21.80;;;;;;5103213;28;20433;-67
2020/12/03 02:34:45;;;;;;;23.20;3.15;;;17.00;21.70;;;;;;5103802;28;20470;-67
2020/12/03 02:37:12;;;;;;;16.45;2.63;;;16.90;21.50;;;;;;5108117;28;20125;-67
2020/12/03 02:39:40;;;;;;;13.70;2.80;;;16.90;21.30;;;;;;5105115;28;20154;-67
2020/12/03 02:42:10;;;;;;;24.30;2.55;;;16.80;21.20;;;;;;5107146;28;20084;-67
2020/12/03 02:44:45;;;;;;;10.18;2.13;;;16.70;21.30;;;;;;5104741;28;20151;-66
2020/12/03 02:47:14;;;;;;;14.00;2.42;;;16.70;21.20;;;;;;5106573;28;20063;-67
2020/12/03 02:49:41;;;;;;;15.40;2.17;;;16.60;21.30;;;;;;5105265;28;20072;-67
2020/12/03 02:52:17;;;;;;;16.42;2.70;;;16.60;21.30;;;;;;5106258;28;20091;-67
2020/12/03 02:54:44;;;;;;;26.75;3.55;;;16.50;21.30;;;;;;5104292;28;20076;-67
2020/12/03 02:57:11;;;;;;;23.60;3.08;;;16.50;21.40;;;;;;5107528;28;20555;-67
2020/12/03 02:59:38;;;;;;;22.70;3.65;;;16.40;21.70;;;;;;5098895;28;20116;-67
2020/12/03 03:02:05;;;;;;;23.05;3.70;;;16.40;21.80;;;;;;5101344;28;20096;-67
2020/12/03 03:04:32;;;;;;;16.65;3.45;;;16.30;21.90;;;;;;5102383;28;20068;-67
2020/12/03 03:06:58;;;;;;;23.35;3.85;;;16.30;22.10;;;;;;5104319;28;20499;-67
2020/12/03 03:09:25;;;;;;;;;;;16.20;22.30;;;;;;5099922;28;20156;-64
2020/12/03 03:11:52;;;;;;;9.57;3.40;;;16.10;21.50;;;;;;5084719;28;20048;-66
2020/12/03 03:14:19;;;;;;;21.52;3.33;;;16.10;21.40;;;;;;5106561;28;20079;-66
2020/12/03 03:16:46;;;;;;;19.73;2.92;;;16.10;21.70;;;;;;5099832;28;20068;-67
2020/12/03 03:19:14;;;;;;;20.77;3.35;;;16.10;22.20;;;;;;5106175;28;20069;-66
2020/12/03 03:21:41;;;;;;;14.65;3.25;;;16.10;22.40;;;;;;5083055;28;20202;-66
2020/12/03 03:24:07;;;;;;;;;;;16.00;22.40;;;;;;5102670;28;20092;-66
2020/12/03 03:26:36;;;;;;;22.30;4.95;;;15.90;22.40;;;;;;5082735;28;20039;-65
2020/12/03 03:29:04;;;;;;;13.55;4.25;;;15.80;22.70;;;;;;5089086;28;20073;-67
2020/12/03 03:31:31;;;;;;;16.48;3.28;;;15.80;22.70;;;;;;5098253;28;20151;-66
2020/12/03 03:33:58;;;;;;;17.83;2.28;;;15.80;22.70;;;;;;5103926;28;20136;-66
2020/12/03 03:36:24;;;;;;;;;;;15.70;22.60;;;;;;5082671;28;20072;-67
2020/12/03 03:38:51;;;;;;;23.35;2.50;;;15.70;22.50;;;;;;5085002;28;20331;-68
2020/12/03 03:41:17;;;;;;;;;;;15.60;22.30;;;;;;5103622;28;20280;-67
2020/12/03 03:43:44;;;;;;;16.60;1.95;;;15.60;22.20;;;;;;5109119;28;20487;-67
2020/12/03 03:46:11;;;;;;;12.35;2.08;;;15.70;22.30;;;;;;5103504;28;20142;-66
2020/12/03 03:48:37;;;;;;;9.25;1.60;;;15.70;22.20;;;;;;5103094;28;20080;-67
2020/12/03 03:51:04;;;;;;;;;;;15.70;21.90;;;;;;5080550;28;20788;-66
2020/12/03 03:53:31;;;;;;;18.95;2.83;;;15.60;22.00;;;;;;5102659;28;20440;-67
2020/12/03 03:55:58;;;;;;;12.90;1.80;;;15.60;22.10;;;;;;5086988;28;20091;-67
2020/12/03 03:58:24;;;;;;;10.15;1.88;;;15.60;22.40;;;;;;5104531;28;20540;-66
2020/12/03 04:00:51;;;;;;;6.55;1.73;;;15.60;22.20;;;;;;5077345;28;20112;-67
2020/12/03 04:03:19;;;;;;;;;;;15.60;22.00;;;;;;5086772;28;20092;-66
2020/12/03 04:05:48;;;;;;;5.13;1.10;;;15.50;21.80;;;;;;5084770;28;20017;-67
2020/12/03 04:08:15;;;;;;;6.63;1.20;;;15.60;21.80;;;;;;5107426;28;20590;-67
2020/12/03 04:10:43;;;;;;;9.35;1.02;;;15.60;21.90;;;;;;5085378;28;20065;-67
2020/12/03 04:13:10;;;;;;;8.15;2.13;;;15.50;22.10;;;;;;5103498;28;20069;-67
2020/12/03 04:15:37;;;;;;;13.35;2.78;;;15.50;22.10;;;;;;5106943;28;20096;-67
2020/12/03 04:18:05;;;;;;;9.77;2.75;;;15.50;22.40;;;;;;5081049;28;20163;-66
2020/12/03 04:20:31;;;;;;;4.53;1.60;;;15.50;22.70;;;;;;5087988;28;20072;-67
2020/12/03 04:22:58;;;;;;;4.38;1.17;;;15.40;22.50;;;;;;5098836;28;20100;-67
2020/12/03 04:25:24;;;;;;;;;;;15.40;22.60;;;;;;5103151;28;20527;-66
2020/12/03 04:27:50;;;;;;;;;;;15.40;22.10;;;;;;5105762;28;19964;-67
2020/12/03 04:30:16;;;;;;;;;;;15.50;22.00;;;;;;5103534;28;19961;-68
2020/12/03 04:32:43;;;;;;;;;;;15.50;21.90;;;;;;5103235;28;19957;-68
2020/12/03 04:35:09;;;;;;;;;;;15.50;21.80;;;;;;5084610;28;19988;-66
2020/12/03 04:37:36;;;;;;;;;;;15.60;21.80;;;;;;5100079;28;20342;-67
2020/12/03 04:40:04;;;;;;;;;;;15.60;21.80;;;;;;5099410;28;19956;-67
2020/12/03 04:42:31;;;;;;;;;;;15.60;21.70;;;;;;5103472;28;19976;-66
2020/12/03 04:45:17;;;;;;;;;;;15.60;21.40;;;;;;5082336;28;19975;-67
2020/12/03 04:48:06;;;;;;;;;;;15.70;21.20;;;;;;5084202;28;20412;-67
2020/12/03 04:50:51;;;;;;;;;;;15.70;21.00;;;;;;5090963;28;20435;-67
2020/12/03 04:53:36;;;;;;;;;;;15.60;21.10;;;;;;5101571;28;20003;-67
2020/12/03 04:56:11;;;;;;;;;;;15.60;21.20;;;;;;5099518;28;20079;-67
2020/12/03 04:58:46;;;;;;;;;;;15.60;21.60;;;;;;5085291;28;19956;-66
2020/12/03 05:01:28;;;;;;;;;;;15.60;21.70;;;;;;5071227;28;20023;-67
2020/12/03 05:03:54;;;;;;;;;;;15.60;21.80;;;;;;5065425;28;20384;-67
2020/12/03 05:06:20;;;;;;;;;;;15.50;21.20;;;;;;5083681;28;20086;-67
2020/12/03 05:09:00;;;;;;;;;;;15.50;21.40;;;;;;5082017;28;20334;-67
2020/12/03 05:11:29;;;;;;;;;;;15.50;21.40;;;;;;5076691;28;19960;-66
2020/12/03 05:13:58;;;;;;;;;;;15.50;21.60;;;;;;5084811;28;19984;-66
2020/12/03 05:16:30;;;;;;;;;;;15.40;21.70;;;;;;5099150;28;19956;-66
2020/12/03 05:19:01;;;;;;;;;;;15.50;21.30;;;;;;5085690;28;20012;-67
2020/12/03 05:21:29;;;;;;;;;;;15.50;21.40;;;;;;5067198;28;20020;-66
2020/12/03 05:23:55;;;;;;;;;;;15.40;21.40;;;;;;5088323;28;19973;-66
2020/12/03 05:26:26;;;;;;;;;;;15.40;21.60;;;;;;5088293;28;19956;-66
2020/12/03 05:28:54;;;;;;;;;;;15.40;21.80;;;;;;5089527;28;20035;-67
2020/12/03 05:31:43;;;;;;;;;;;15.30;21.60;;;;;;5082154;28;19967;-67
2020/12/03 05:34:14;;;;;;;;;;;15.30;21.60;;;;;;5086931;28;19957;-67
2020/12/03 05:37:03;;;;;;;;;;;15.30;21.40;;;;;;5086978;28;19961;-66
2020/12/03 05:39:29;;;;;;;;;;;15.20;21.20;;;;;;5082284;28;19970;-66
2020/12/03 05:42:04;;;;;;;;;;;15.20;21.70;;;;;;5064649;28;19985;-68
2020/12/03 05:44:46;;;;;;;;;;;15.10;21.40;;;;;;5086487;28;20029;-68
2020/12/03 05:47:23;;;;;;;;;;;15.10;21.60;;;;;;5086399;28;19956;-67
2020/12/03 05:49:52;;;;;;;;;;;15.00;21.80;;;;;;5101558;28;19960;-68
2020/12/03 05:52:20;;;;;;;;;;;15.00;21.60;;;;;;5086560;28;20046;-66
2020/12/03 05:55:06;;;;;;;;;;;14.90;21.50;;;;;;5087640;28;19957;-67
2020/12/03 05:57:35;;;;;;;;;;;14.90;21.10;;;;;;5086615;28;19995;-67
2020/12/03 06:00:09;;;;;;;;;;;15.00;21.00;;;;;;5083832;28;19980;-67
2020/12/03 06:02:43;;;;;;;;;;;15.00;21.20;;;;;;5066402;28;21277;-67
2020/12/03 06:05:16;;;;;;;;;;;14.90;21.40;;;;;;5066222;28;20414;-66
2020/12/03 06:07:50;;;;;;;;;;;14.90;21.70;;;;;;5087154;28;19957;-68
2020/12/03 06:10:36;;;;;;;;;;;14.80;22.20;;;;;;5080740;28;19956;-66
2020/12/03 06:13:07;;;;;;;;;;;14.80;22.40;;;;;;5062225;28;19998;-66
2020/12/03 06:15:36;;;;;;;;;;;14.70;22.60;;;;;;5086013;28;20401;-66
2020/12/03 06:18:06;;;;;;;;;;;14.70;22.30;;;;;;5082660;28;19956;-66
2020/12/03 06:20:32;;;;;;;;;;;14.70;21.90;;;;;;5084359;28;19956;-67
2020/12/03 06:23:01;;;;;;;;;;;14.80;21.70;;;;;;5081803;28;19976;-66
2020/12/03 06:25:27;;;;;;;;;;;14.80;21.20;;;;;;5080183;28;19960;-67
2020/12/03 06:28:12;;;;;;;;;;;14.90;21.10;;;;;;5100558;28;19957;-67
2020/12/03 06:30:43;;;;;;;;;;;14.90;20.90;;;;;;5086525;28;19956;-67
2020/12/03 06:33:27;;;;;;;;;;;14.90;21.10;;;;;;5068549;28;19961;-66
2020/12/03 06:35:57;;;;;;;;;;;14.90;21.20;;;;;;5084981;28;20357;-66
2020/12/03 06:38:34;;;;;;;;;;;14.80;21.30;;;;;;5084712;28;19965;-67
2020/12/03 06:41:04;;;;;;;;;;;14.80;21.50;;;;;;5085287;28;19956;-67
2020/12/03 06:43:36;;;;;;;;;;;14.70;21.80;;;;;;5081539;28;19999;-67
2020/12/03 06:46:08;;;;;;;;;;;14.70;21.80;;;;;;5084405;28;19971;-66
2020/12/03 06:48:50;;;;;;;;;;;14.60;21.80;;;;;;5078445;28;20340;-67
2020/12/03 06:51:32;;;;;;;;;;;14.60;21.90;;;;;;5066317;28;21362;-66
2020/12/03 06:54:07;;;;;;;;;;;14.50;21.90;;;;;;5084540;28;19957;-66
2020/12/03 06:56:52;;;;;;;;;;;14.50;22.00;;;;;;5077846;28;19963;-67
2020/12/03 06:59:47;;;;;;;;;;;14.50;22.20;;;;;;5082432;28;19984;-67
2020/12/03 07:02:27;;;;;;;;;;;14.50;22.10;;;;;;5096759;28;20026;-67
2020/12/03 07:05:11;;;;;;;;;;;14.40;22.30;;;;;;5091568;28;19956;-66
2020/12/03 07:07:53;;;;;;;;;;;14.40;22.60;;;;;;5111496;28;19956;-67
2020/12/03 07:10:45;;;;;;;;;;;14.40;22.60;;;;;;5089174;28;19983;-67
2020/12/03 07:13:30;;;;;;;;;;;14.30;22.70;;;;;;5086540;28;19956;-68
2020/12/03 07:16:02;;;;;;;;;;;14.20;23.10;;;;;;5092632;28;20030;-69
2020/12/03 07:18:41;;;;;;;;;;;14.10;23.50;;;;;;5089860;28;19967;-67
2020/12/03 07:21:22;;;;;;;;;;;14.00;23.80;;;;;;5111535;28;20515;-65
2020/12/03 07:24:00;;;;;;;;;;;13.90;24.00;;;;;;5089932;28;19984;-65
2020/12/03 07:26:39;;;;;;;;;;;13.80;24.00;;;;;;5108131;27;20020;-66
2020/12/03 07:29:12;;;;;;;;;;;13.80;23.90;;;;;;5088788;28;20364;-66
2020/12/03 07:31:39;;;;;;;;;;;13.70;24.00;;;;;;5106030;28;20473;-67
2020/12/03 07:34:17;;;;;;;;;;;13.70;24.30;;;;;;5108252;27;19982;-66
2020/12/03 07:37:06;;;;;;;;;;;13.70;24.10;;;;;;5106058;28;19982;-67
2020/12/03 07:39:35;;;;;;;;;;;13.60;24.40;;;;;;5088729;28;20070;-66
2020/12/03 07:42:12;;;;;;;;;;;13.60;24.60;;;;;;5088402;28;19984;-66
2020/12/03 07:44:43;;;;;;;;;;;13.60;24.80;;;;;;5091396;28;19956;-66
2020/12/03 07:47:21;;;;;;;;;;;13.50;25.00;;;;;;5109924;27;19960;-66
2020/12/03 07:49:48;;;;;;;;;;;13.40;25.20;;;;;;5108065;28;19994;-66
2020/12/03 07:52:18;;;;;;;;;;;13.40;25.50;;;;;;5105612;28;20009;-65
2020/12/03 07:54:45;;;;;;;;;;;13.40;25.60;;;;;;5089890;28;20324;-65
2020/12/03 07:57:31;;;;;;;;;;;13.30;25.60;;;;;;5108579;28;19978;-66
2020/12/03 07:59:57;;;;;;;;;;;13.30;25.80;;;;;;5093489;27;19984;-66
2020/12/03 08:02:41;;;;;;;;;;;13.30;26.00;;;;;;5110192;27;19984;-65
2020/12/03 08:05:26;;;;;;;;;;;13.20;25.60;;;;;;5111067;27;19963;-65
2020/12/03 08:07:54;;;;;;;;;;;13.20;25.30;;;;;;5107632;28;20006;-65
2020/12/03 08:10:36;;;;;;;;;;;13.30;25.00;;;;;;5106818;28;20346;-66
2020/12/03 08:13:25;;;;;;;;;;;13.30;24.80;;;;;;5105004;28;20293;-65
2020/12/03 08:16:11;;;;;;;;;;;13.40;24.70;;;;;;5082921;28;19964;-65
2020/12/03 08:18:42;;;;;;;;;;;13.30;24.60;;;;;;5106400;28;20415;-64
2020/12/03 08:21:09;;;;;;;;;;;13.40;24.40;;;;;;5107952;28;19956;-65
2020/12/03 08:23:36;;;;;;;;;;;13.40;24.20;;;;;;5084933;28;20321;-65
2020/12/03 08:26:02;;;;;;;;;;;13.50;24.10;;;;;;5091297;28;19956;-65
2020/12/03 08:28:29;;;;;;;;;;;13.50;23.90;;;;;;5088725;28;20405;-66
2020/12/03 08:30:55;;;;;;;;;;;13.50;24.30;;;;;;5103015;28;19964;-66
2020/12/03 08:33:32;;;;;;;;;;;13.50;23.70;;;;;;5111680;28;20396;-66
2020/12/03 08:36:00;;;;;;;;;;;13.50;24.00;;;;;;5108410;28;19958;-66
2020/12/03 08:38:33;;;;;;;;;;;13.50;24.00;;;;;;5087351;28;19967;-65
2020/12/03 08:41:05;;;;;;;;;;;13.50;23.90;;;;;;5087807;28;19967;-66
2020/12/03 08:43:33;;;;;;;;;;;13.50;24.00;;;;;;5107188;28;19980;-65
2020/12/03 08:46:03;;;;;;;;;;;13.50;23.90;;;;;;5109032;28;20529;-66
2020/12/03 08:48:31;;;;;;;;;;;13.50;23.60;;;;;;5106709;28;19964;-65
2020/12/03 08:51:06;;;;;;;;;;;13.50;23.60;;;;;;5107689;28;20043;-65
2020/12/03 08:53:33;;;;;;;;;;;13.50;23.10;;;;;;5108895;28;20053;-66
2020/12/03 08:56:16;;;;;;;;;;;13.50;22.80;;;;;;5091994;28;19960;-65
2020/12/03 08:58:47;;;;;;;;;;;13.50;22.70;;;;;;5110968;28;20055;-65
2020/12/03 09:01:13;;;;;;;;;;;13.60;22.70;;;;;;5110067;28;19990;-66
2020/12/03 09:03:40;;;;;;;;;;;13.60;22.40;;;;;;5108353;28;20487;-65
2020/12/03 09:06:08;;;;;;;;;;;13.70;22.00;;;;;;5094167;28;19957;-65
2020/12/03 09:08:34;;;;;;;;;;;13.80;21.90;;;;;;5092337;28;19992;-66
2020/12/03 09:11:01;;;;;;;;;;;13.90;21.60;;;;;;5112862;28;20054;-65
2020/12/03 09:13:27;;;;;;;;;;;13.90;21.70;;;;;;5110775;27;19956;-66
2020/12/03 09:15:55;;;;;;;;;;;14.00;21.60;;;;;;5111551;28;19984;-65
2020/12/03 09:18:21;;;;;;;;;;;14.00;21.70;;;;;;5107648;28;20018;-66
2020/12/03 09:20:48;;;;;;;;;;;14.00;21.50;;;;;;5112174;28;19998;-65
2020/12/03 09:23:18;;;;;;;;;;;14.00;21.90;;;;;;5108733;28;20507;-65
2020/12/03 09:25:44;;;;;;;;;;;14.10;21.80;;;;;;5112545;27;19960;-66
2020/12/03 09:28:10;;;;;;;;;;;14.10;21.80;;;;;;5111723;27;19978;-66
2020/12/03 09:30:39;;;;;;;;;;;14.10;22.00;;;;;;5108788;27;19972;-65
2020/12/03 09:33:08;;;;;;;;;;;14.00;21.90;;;;;;5110866;28;19992;-65
2020/12/03 09:35:35;;;;;;;;;;;14.00;22.20;;;;;;5090567;28;20350;-67
2020/12/03 09:38:02;;;;;;;;;;;14.00;22.10;;;;;;5092952;28;19956;-66
2020/12/03 09:40:29;;;;;;;;;;;13.90;22.40;;;;;;5111412;28;20296;-66
2020/12/03 09:42:56;;;;;;;;;;;13.90;22.60;;;;;;5110675;28;19977;-66
2020/12/03 09:45:23;;;;;;;;;;;13.90;22.90;;;;;;5092965;28;20046;-67
2020/12/03 09:47:50;;;;;;;;;;;13.90;23.20;;;;;;5108597;28;20006;-67
2020/12/03 09:50:20;;;;;;;;;;;13.80;23.40;;;;;;5089276;28;21332;-66
2020/12/03 09:52:46;;;;;;;;;;;13.70;23.60;;;;;;5107885;28;20351;-65
2020/12/03 09:55:14;;;;;;;;;;;13.60;23.80;;;;;;5106520;28;20297;-65
2020/12/03 09:57:45;;;;;;;;;;;13.60;23.80;;;;;;5090983;28;19956;-65
2020/12/03 10:00:15;;;;;;;;;;;13.50;24.20;;;;;;5114192;27;20041;-66
2020/12/03 10:02:47;;;;;;;;;;;13.40;24.80;;;;;;5090680;28;19983;-65
2020/12/03 10:05:21;;;;;;;;;;;13.40;24.50;;;;;;5089069;28;19991;-65
2020/12/03 10:07:56;;;;;;;;;;;13.30;24.60;;;;;;5110107;28;19956;-65
2020/12/03 10:10:42;;;;;;;;;;;13.10;24.80;;;;;;5089914;28;19963;-65
2020/12/03 10:13:20;;;;;;;;;;;13.10;25.10;;;;;;5080495;28;19956;-65
2020/12/03 10:16:04;;;;;;;;;;;13.00;25.60;;;;;;5111641;27;19956;-65
2020/12/03 10:18:48;;;;;;;;;;;12.90;25.90;;;;;;5110493;28;20107;-65
2020/12/03 10:21:20;;;;;;;;;;;12.90;26.20;;;;;;5111686;28;20001;-65
2020/12/03 10:23:49;;;;;;;;;;;12.80;26.10;;;;;;5108142;28;20455;-66
2020/12/03 10:26:31;;;;;;;;;;;12.70;26.10;;;;;;5109542;28;20372;-65
2020/12/03 10:29:13;;;;;;;;;;;12.70;26.00;;;;;;5087482;28;20040;-65
2020/12/03 10:31:40;;;;;;;;;;;12.70;26.20;;;;;;5110166;28;19956;-66
2020/12/03 10:34:06;;;;;;;;;;;12.60;26.10;;;;;;5107123;27;20055;-65
2020/12/03 10:36:34;;;;;;;;;;;12.50;26.10;;;;;;5113455;27;19979;-65
2020/12/03 10:39:00;;;;;;;;;;;12.50;26.20;;;;;;5106737;28;20033;-65
2020/12/03 10:41:36;;;;;;;;;;;12.50;26.20;;;;;;5111164;28;19960;-65
2020/12/03 10:44:04;;;;;;;;;;;12.40;26.20;;;;;;5106628;27;19973;-65
2020/12/03 10:46:32;;;;;;;;;;;12.40;26.40;;;;;;5109415;28;20008;-65
2020/12/03 10:48:59;;;;;;;;;;;12.40;26.80;;;;;;5115628;27;20007;-65
2020/12/03 10:51:25;;;;;;;;;;;12.30;27.60;;;;;;5109355;27;20081;-65
2020/12/03 10:53:53;;;;;;;;;;;12.30;27.80;;;;;;5106615;28;20421;-65
2020/12/03 10:56:30;;;;;;;;;;;12.20;28.40;;;;;;5108055;28;19964;-65
2020/12/03 10:59:06;;;;;;;;;;;12.10;28.80;;;;;;5086584;28;20576;-66
2020/12/03 11:01:33;;;;;;;;;;;12.00;29.00;;;;;;5110001;27;19991;-65
2020/12/03 11:04:04;;;;;;;;;;;12.00;28.90;;;;;;5108099;28;19980;-65
2020/12/03 11:06:31;;;;;;;;;;;12.00;28.80;;;;;;5108895;28;20063;-66
2020/12/03 11:08:57;;;;;;;;;;;12.00;28.00;;;;;;5092570;28;20451;-65
2020/12/03 11:11:24;;;;;;;;;;;12.00;27.90;;;;;;5106972;28;19988;-65
2020/12/03 11:13:50;;;;;;;;;;;12.00;27.50;;;;;;5106475;27;19964;-66
2020/12/03 11:16:23;;;;;;;;;;;12.10;27.10;;;;;;5105872;27;19957;-67
2020/12/03 11:18:49;;;;;;;;;;;12.20;26.60;;;;;;5102720;28;19965;-66
2020/12/03 11:21:23;;;;;;;;;;;12.10;26.20;;;;;;5101950;28;20351;-65
2020/12/03 11:23:57;;;;;;;;;;;12.30;25.80;;;;;;5105916;28;20397;-65
2020/12/03 11:26:27;;;;;;;;;;;12.40;25.40;;;;;;5108242;28;19987;-65
2020/12/03 11:28:53;;;;;;;;;;;12.40;25.40;;;;;;5106183;28;19956;-65
2020/12/03 11:31:29;;;;;;;;;;;12.50;25.30;;;;;;5090115;28;19984;-66
2020/12/03 11:33:55;;;;;;;;;;;12.50;25.10;;;;;;5106616;28;20026;-66
2020/12/03 11:36:21;;;;;;;;;;;12.50;25.50;;;;;;5108693;28;19963;-66
2020/12/03 11:38:52;;;;;;;;;;;12.50;25.40;;;;;;5105460;28;20019;-66
2020/12/03 11:41:26;;;;;;;;;;;12.50;25.20;;;;;;5101740;28;19957;-66
2020/12/03 11:48:55;;;;;;;;;;;12.40;25.70;;;;;;5104527;28;19964;-66
2020/12/03 11:51:27;;;;;;;;;;;12.30;26.00;;;;;;5105336;28;20082;-66
2020/12/03 11:54:01;;;;;;;;;;;12.30;26.40;;;;;;5106306;28;19962;-66
2020/12/03 11:56:28;;;;;;;;;;;12.20;26.70;;;;;;5107005;28;19960;-66
2020/12/03 11:59:12;;;;;;;;;;;12.10;26.90;;;;;;5109436;27;19961;-66
2020/12/03 12:01:39;;;;;;;;;;;12.00;27.20;;;;;;5106467;28;20348;-66
2020/12/03 12:04:08;;;;;;;;;;;11.90;27.40;;;;;;5108542;28;19966;-65
2020/12/03 12:06:45;;;;;;;;;;;11.90;27.90;;;;;;5090066;28;19965;-66
2020/12/03 12:09:50;;;;;;;;;;;11.80;27.80;;;;;;5109707;27;19952;-65
2020/12/03 12:12:04;;;;;;;;;;;11.70;28.10;;;;;;5106704;27;20051;-66
2020/12/03 12:14:30;;;;;;;;;;;11.80;28.30;;;;;;5108366;28;19956;-66
2020/12/03 12:16:56;;;;;;;;;;;11.70;28.40;;;;;;5109898;28;19956;-66
2020/12/03 12:19:25;;;;;;;;;;;11.70;28.60;;;;;;5104139;28;20055;-64
2020/12/03 12:21:52;;;;;;;;;;;11.60;28.50;;;;;;5104554;28;19957;-65
2020/12/03 12:24:18;;;;;;;;;;;11.60;28.40;;;;;;5086421;28;20047;-65
2020/12/03 12:26:44;;;;;;;;;;;11.60;28.50;;;;;;5106593;28;20479;-65
2020/12/03 12:29:11;;;;;;;;;;;11.60;28.70;;;;;;5105249;28;19970;-65
2020/12/03 12:31:37;;;;;;;;;;;11.60;28.70;;;;;;5083223;28;20381;-64
2020/12/03 12:34:03;;;;;;;;;;;11.60;27.40;;;;;;5107408;28;20308;-65
2020/12/03 12:36:30;;;;;;;;;;;11.70;26.80;;;;;;5105846;28;20054;-65
2020/12/03 12:38:56;;;;;;;;;;;11.70;26.80;;;;;;5109146;28;20470;-66
2020/12/03 12:41:22;;;;;;;;;;;11.70;26.90;;;;;;5084314;28;19960;-65
2020/12/03 12:43:48;;;;;;;;;;;11.70;26.90;;;;;;5106562;28;20027;-64
2020/12/03 12:46:24;;;;;;;;;;;11.70;27.10;;;;;;5107762;28;20105;-65
2020/12/03 12:48:50;;;;;;;;;;;11.70;27.10;;;;;;5107211;28;19968;-65
2020/12/03 12:51:17;;;;;;;;;;;11.70;27.10;;;;;;5107454;28;19956;-65
2020/12/03 12:53:43;;;;;;;;;;;11.60;27.10;;;;;;5106484;28;19956;-65
2020/12/03 12:56:10;;;;;;;;;;;11.60;27.60;;;;;;5108447;28;19956;-65
2020/12/03 12:58:36;;;;;;;;;;;11.50;28.10;;;;;;5107566;28;20000;-65
2020/12/03 13:01:03;;;;;;;;;;;11.50;28.70;;;;;;5087208;28;19990;-65
2020/12/03 13:03:30;;;;;;;;;;;11.40;29.10;;;;;;5104632;28;20133;-65
2020/12/03 13:05:56;;;;;;;;;;;11.30;29.80;;;;;;5104468;28;20047;-65
2020/12/03 13:08:22;;;;;;;;;;;11.20;30.20;;;;;;5108446;28;20022;-65
2020/12/03 13:10:48;;;;;;;;;;;11.20;30.80;;;;;;5105259;28;20379;-65
2020/12/03 13:13:14;;;;;;;;;;;11.20;31.30;;;;;;5105582;28;19956;-67
2020/12/03 13:15:40;;;;;;;;;;;11.10;31.60;;;;;;5090965;28;19992;-64
2020/12/03 13:18:07;;;;;;;;;;;11.00;32.20;;;;;;5085083;28;19956;-65
2020/12/03 13:20:33;;;;;;;;;;;11.00;32.80;;;;;;5103784;28;20409;-65
2020/12/03 13:22:59;;;;;;;;;;;11.00;33.30;;;;;;5105055;28;20019;-65
2020/12/03 13:25:25;;;;;;;;;;;10.90;33.60;;;;;;5104397;28;20324;-65
2020/12/03 13:27:51;;;;;;;;;;;10.90;34.30;;;;;;5104923;28;20577;-65
2020/12/03 13:30:17;;;;;;;;;;;10.80;34.70;;;;;;5105735;28;20424;-65
2020/12/03 13:32:43;;;;;;;;;;;10.80;35.10;;;;;;5107463;28;20055;-66
2020/12/03 13:35:09;;;;;;;;;;;10.80;35.40;;;;;;5106155;28;20002;-65
2020/12/03 13:37:35;;;;;;;;;;;10.80;35.60;;;;;;5109899;28;19963;-65
2020/12/03 13:40:02;;;;;;;;;;;10.70;35.80;;;;;;5113386;27;19963;-66
2020/12/03 13:42:28;;;;;;;;;;;10.70;36.10;;;;;;5113258;27;19976;-65
2020/12/03 13:44:55;;;;;;;;;;;10.60;36.30;;;;;;5105803;28;19960;-65
2020/12/03 13:47:21;;;;;;;;;;;10.60;36.70;;;;;;5111385;27;19960;-65
2020/12/03 13:49:47;;;;;;;;;;;10.50;36.70;;;;;;5109941;28;19964;-65
2020/12/03 13:52:13;;;;;;;;;;;10.50;36.80;;;;;;5087069;28;20014;-65
2020/12/03 13:54:39;;;;;;;;;;;10.40;36.70;;;;;;5110181;27;20044;-65
2020/12/03 13:57:05;;;;;;;;;;;10.50;36.60;;;;;;5111619;28;20320;-64
2020/12/03 13:59:31;;;;;;;;;;;10.50;36.00;;;;;;5111139;27;20154;-65
2020/12/03 14:01:57;;;;;;;;;;;10.50;35.60;;;;;;5111017;27;19964;-64
2020/12/03 14:04:23;;;;;;;;;;;10.60;34.90;;;;;;5110619;28;20092;-64
2020/12/03 14:06:49;;;;;;;;;;;10.60;34.00;;;;;;5110250;27;20302;-65
2020/12/03 14:09:16;;;;;;;;;;;10.70;33.40;;;;;;5089686;28;19957;-65